Time;durP1;ratioP1;P1;durP2;ratioP2;P2;SDS_P1;SDS_P2;PMS_P1;PMS_P2;Temp;Humidity;BMP_temperature;BMP_pressure;BME280_temperature;BME280_humidity;BME280_pressure;Samples;Min_cycle;Max_cycle;Signal;HPM_P1;HPM_P2
2023/04/10 00:01:15;;;;;;;;;;;;;;;;;;6188389;23;19920;-88
2023/04/10 00:03:42;;;;;;;;;;;;;;;;;;6187392;23;19946;-88
2023/04/10 00:06:11;;;;;;;;;;;;;;;;;;6187008;23;19920;-89
2023/04/10 00:08:38;;;;;;;;;;;;;;;;;;6214682;23;19924;-88
2023/04/10 00:11:05;;;;;;;;;;;;;;;;;;6188314;23;19930;-88
2023/04/10 00:13:32;;;;;;;;;;;;;;;;;;6188227;23;19920;-88
2023/04/10 00:15:59;;;;;;;;;;;;;;;;;;6187260;23;19968;-88
2023/04/10 00:18:27;;;;;;;;;;;;;;;;;;6188400;23;19927;-88
2023/04/10 00:20:55;;;;;;;;;;;;;;;;;;6163170;23;19927;-88
2023/04/10 00:23:25;;;;;;;;;;;;;;;;;;6187899;23;19939;-89
2023/04/10 00:25:52;;;;;;;;;;;;;;;;;;6224763;23;19931;-88
2023/04/10 00:28:19;;;;;;;;;;;;;;;;;;6162137;23;19920;-88
2023/04/10 00:30:46;;;;;;;;;;;;;;;;;;6187827;23;19920;-89
2023/04/10 00:33:13;;;;;;;;;;;;;;;;;;6187886;23;19927;-89
2023/04/10 00:35:40;;;;;;;;;;;;;;;;;;6198107;23;19924;-89
2023/04/10 00:38:09;;;;;;;;;;;;;;;;;;6197284;23;19919;-90
2023/04/10 00:40:37;;;;;;;;;;;;;;;;;;6187221;23;19924;-89
2023/04/10 00:43:04;;;;;;;;;;;;;;;;;;6163322;23;20264;-89
2023/04/10 00:45:31;;;;;;;;;;;;;;;;;;6188671;23;20362;-89
2023/04/10 00:47:58;;;;;;;;;;;;;;;;;;6188227;23;19923;-89
2023/04/10 00:50:25;;;;;;;;;;;;;;;;;;6187082;23;19920;-86
2023/04/10 00:52:52;;;;;;;;;;;;;;;;;;6186491;23;20335;-87
2023/04/10 00:55:19;;;;;;;;;;;;;;;;;;6198103;23;19920;-88
2023/04/10 01:21:28;;;;;;;;;;;;;;;;;;6185036;23;19920;-88
2023/04/10 01:24:10;;;;;;;;;;;;;;;;;;6184683;23;19921;-89
2023/04/10 01:26:40;;;;;;;;;;;;;;;;;;6155853;23;20371;-88
2023/04/10 01:29:12;;;;;;;;;;;;;;;;;;6160522;23;19920;-88
2023/04/10 01:31:42;;;;;;;;;;;;;;;;;;6158709;23;19920;-88
2023/04/10 01:34:10;;;;;;;;;;;;;;;;;;6158977;23;19921;-88
2023/04/10 01:36:50;;;;;;;;;;;;;;;;;;6158403;23;19927;-89
2023/04/10 01:39:18;;;;;;;;;;;;;;;;;;6169054;23;19920;-88
2023/04/10 01:41:45;;;;;;;;;;;;;;;;;;6159694;23;19931;-88
2023/04/10 01:44:17;;;;;;;;;;;;;;;;;;6159944;23;19927;-89
2023/04/10 01:46:44;;;;;;;;;;;;;;;;;;6185323;23;19925;-89
2023/04/10 01:49:11;;;;;;;;;;;;;;;;;;6159129;23;19920;-88
2023/04/10 01:51:42;;;;;;;;;;;;;;;;;;6134141;23;19920;-88
2023/04/10 01:54:11;;;;;;;;;;;;;;;;;;6133996;23;20252;-89
2023/04/10 01:56:38;;;;;;;;;;;;;;;;;;6159289;23;19932;-89
2023/04/10 01:59:05;;;;;;;;;;;;;;;;;;6159437;23;19935;-88
2023/04/10 02:01:33;;;;;;;;;;;;;;;;;;6134334;23;19920;-88
2023/04/10 02:04:02;;;;;;;;;;;;;;;;;;6168519;23;19927;-89
2023/04/10 02:06:34;;;;;;;;;;;;;;;;;;6159562;23;20336;-88
2023/04/10 02:09:06;;;;;;;;;;;;;;;;;;6159129;23;19920;-88
2023/04/10 02:11:34;;;;;;;;;;;;;;;;;;6160369;23;19920;-88
2023/04/10 02:14:02;;;;;;;;;;;;;;;;;;6133432;23;19927;-89
2023/04/10 02:16:31;;;;;;;;;;;;;;;;;;6159399;23;19921;-89
2023/04/10 02:18:59;;;;;;;;;;;;;;;;;;6134510;23;19927;-89
2023/04/10 02:21:27;;;;;;;;;;;;;;;;;;6185116;23;20336;-88
2023/04/10 02:23:55;;;;;;;;;;;;;;;;;;6157147;23;20367;-89
2023/04/10 02:26:22;;;;;;;;;;;;;;;;;;6158921;23;19921;-89
2023/04/10 02:28:49;;;;;;;;;;;;;;;;;;6134771;23;20273;-88
2023/04/10 02:31:16;;;;;;;;;;;;;;;;;;6158667;23;19948;-88
2023/04/10 02:33:45;;;;;;;;;;;;;;;;;;6133194;23;19928;-89
2023/04/10 02:36:13;;;;;;;;;;;;;;;;;;6134383;23;19920;-88
2023/04/10 02:38:40;;;;;;;;;;;;;;;;;;6158837;23;19940;-88
2023/04/10 02:41:11;;;;;;;;;;;;;;;;;;6134046;23;19920;-88
2023/04/10 02:43:39;;;;;;;;;;;;;;;;;;6158765;23;19920;-88
2023/04/10 02:46:09;;;;;;;;;;;;;;;;;;6158774;23;19931;-88
2023/04/10 02:48:39;;;;;;;;;;;;;;;;;;6159341;23;19920;-88
2023/04/10 02:51:08;;;;;;;;;;;;;;;;;;6134040;23;19924;-88
2023/04/10 02:53:37;;;;;;;;;;;;;;;;;;6133593;23;19932;-88
2023/04/10 02:56:07;;;;;;;;;;;;;;;;;;6168375;23;19920;-89
2023/04/10 02:58:35;;;;;;;;;;;;;;;;;;6133565;23;19920;-88
2023/04/10 03:01:02;;;;;;;;;;;;;;;;;;6158562;23;19920;-88
2023/04/10 03:03:58;;;;;;;;;;;;;;;;;;6183995;23;20350;-89
2023/04/10 03:06:31;;;;;;;;;;;;;;;;;;6194224;23;19931;-89
2023/04/10 03:08:59;;;;;;;;;;;;;;;;;;6158295;23;19943;-88
2023/04/10 03:11:28;;;;;;;;;;;;;;;;;;6157560;23;19928;-89
2023/04/10 03:13:58;;;;;;;;;;;;;;;;;;6168237;23;19943;-88
2023/04/10 03:16:25;;;;;;;;;;;;;;;;;;6133193;23;19920;-87
2023/04/10 03:18:52;;;;;;;;;;;;;;;;;;6168327;23;19920;-89
2023/04/10 03:21:20;;;;;;;;;;;;;;;;;;6158072;23;19920;-87
2023/04/10 03:23:49;;;;;;;;;;;;;;;;;;6157773;23;19927;-89
2023/04/10 03:26:17;;;;;;;;;;;;;;;;;;6157956;23;19921;-89
2023/04/10 03:28:44;;;;;;;;;;;;;;;;;;6158603;23;19927;-89
2023/04/10 03:31:11;;;;;;;;;;;;;;;;;;6133155;23;20249;-88
2023/04/10 03:33:40;;;;;;;;;;;;;;;;;;6133167;23;19969;-89
2023/04/10 03:36:07;;;;;;;;;;;;;;;;;;6133998;23;20058;-89
2023/04/10 03:38:34;;;;;;;;;;;;;;;;;;6184725;23;19927;-89
2023/04/10 03:41:02;;;;;;;;;;;;;;;;;;6134245;23;19920;-88
2023/04/10 03:43:33;;;;;;;;;;;;;;;;;;6161569;23;19921;-89
2023/04/10 03:46:04;;;;;;;;;;;;;;;;;;6136301;23;19927;-89
2023/04/10 03:48:32;;;;;;;;;;;;;;;;;;6135707;23;19927;-88
2023/04/10 03:50:59;;;;;;;;;;;;;;;;;;6135150;23;19921;-87
2023/04/10 03:53:28;;;;;;;;;;;;;;;;;;6158689;23;19920;-88
2023/04/10 03:55:55;;;;;;;;;;;;;;;;;;6134203;23;19927;-89
2023/04/10 03:58:24;;;;;;;;;;;;;;;;;;6158050;23;19943;-89
2023/04/10 04:00:54;;;;;;;;;;;;;;;;;;6157788;23;19920;-89
2023/04/10 04:03:31;;;;;;;;;;;;;;;;;;6168388;23;19927;-90
2023/04/10 04:06:01;;;;;;;;;;;;;;;;;;6184765;23;20352;-89
2023/04/10 04:08:37;;;;;;;;;;;;;;;;;;6166982;23;20284;-88
2023/04/10 04:11:23;;;;;;;;;;;;;;;;;;6183748;23;19943;-89
2023/04/10 04:14:13;;;;;;;;;;;;;;;;;;6183533;23;19928;-89
2023/04/10 04:16:44;;;;;;;;;;;;;;;;;;6184188;23;19920;-90
2023/04/10 04:19:30;;;;;;;;;;;;;;;;;;6165901;23;20268;-89
2023/04/10 04:22:08;;;;;;;;;;;;;;;;;;6167605;23;19924;-89
2023/04/10 04:24:56;;;;;;;;;;;;;;;;;;6194563;23;19924;-89
2023/04/10 04:27:36;;;;;;;;;;;;;;;;;;6158308;23;19927;-89
2023/04/10 04:30:10;;;;;;;;;;;;;;;;;;6131447;23;20233;-89
2023/04/10 04:33:13;;;;;;;;;;;;;;;;;;6136008;23;20256;-88
2023/04/10 04:35:57;;;;;;;;;;;;;;;;;;6167568;23;19920;-88
2023/04/10 04:38:45;;;;;;;;;;;;;;;;;;6194306;23;19920;-89
2023/04/10 04:41:42;;;;;;;;;;;;;;;;;;6178091;23;20248;-88
2023/04/10 04:44:18;;;;;;;;;;;;;;;;;;6133796;23;19920;-89
2023/04/10 04:47:08;;;;;;;;;;;;;;;;;;6167746;23;19920;-88
2023/04/10 04:49:57;;;;;;;;;;;;;;;;;;6164801;23;20256;-89
2023/04/10 04:52:45;;;;;;;;;;;;;;;;;;6182670;23;19920;-90
2023/04/10 04:55:35;;;;;;;;;;;;;;;;;;6155999;23;19920;-90
2023/04/10 04:58:25;;;;;;;;;;;;;;;;;;6145311;23;20359;-90
2023/04/10 05:01:05;;;;;;;;;;;;;;;;;;6160793;23;19920;-89
2023/04/10 05:03:52;;;;;;;;;;;;;;;;;;6193445;23;19920;-89
2023/04/10 05:06:36;;;;;;;;;;;;;;;;;;6132869;23;19920;-89
2023/04/10 05:09:38;;;;;;;;;;;;;;;;;;6158017;23;19920;-89
2023/04/10 05:12:23;;;;;;;;;;;;;;;;;;6191911;23;19920;-89
2023/04/10 05:15:23;;;;;;;;;;;;;;;;;;6167818;23;19920;-89
2023/04/10 05:18:03;;;;;;;;;;;;;;;;;;6158354;23;19927;-89
2023/04/10 05:20:49;;;;;;;;;;;;;;;;;;6182139;23;19920;-89
2023/04/10 05:23:34;;;;;;;;;;;;;;;;;;6157512;23;19927;-89
2023/04/10 05:26:18;;;;;;;;;;;;;;;;;;6167911;23;19947;-90
2023/04/10 05:28:54;;;;;;;;;;;;;;;;;;6157672;23;19932;-90
2023/04/10 05:31:45;;;;;;;;;;;;;;;;;;6169542;23;19936;-90
2023/04/10 05:34:18;;;;;;;;;;;;;;;;;;6133087;23;19924;-89
2023/04/10 05:37:11;;;;;;;;;;;;;;;;;;6168257;23;19927;-90
2023/04/10 05:40:15;;;;;;;;;;;;;;;;;;6121941;23;20149;-92
2023/04/10 05:42:56;;;;;;;;;;;;;;;;;;6177552;23;19920;-90
2023/04/10 05:45:43;;;;;;;;;;;;;;;;;;6113273;23;19928;-89
2023/04/10 05:48:28;;;;;;;;;;;;;;;;;;6168798;23;19924;-89
2023/04/10 05:51:18;;;;;;;;;;;;;;;;;;6146619;23;19920;-89
2023/04/10 05:54:05;;;;;;;;;;;;;;;;;;6159066;23;19924;-90
2023/04/10 05:56:50;;;;;;;;;;;;;;;;;;6194874;23;20264;-90
2023/04/10 05:59:32;;;;;;;;;;;;;;;;;;6133428;23;20347;-90
2023/04/10 06:02:03;;;;;;;;;;;;;;;;;;6183265;23;19924;-90
2023/04/10 06:04:30;;;;;;;;;;;;;;;;;;6134117;23;19920;-89
2023/04/10 06:07:00;;;;;;;;;;;;;;;;;;6133644;23;19924;-90
2023/04/10 06:09:27;;;;;;;;;;;;;;;;;;6134208;23;20264;-89
2023/04/10 06:11:55;;;;;;;;;;;;;;;;;;6133199;23;20271;-90
2023/04/10 06:14:26;;;;;;;;;;;;;;;;;;6133931;23;20352;-89
2023/04/10 06:16:55;;;;;;;;;;;;;;;;;;6134545;23;19920;-89
2023/04/10 06:19:24;;;;;;;;;;;;;;;;;;6134566;23;20363;-88
2023/04/10 06:21:54;;;;;;;;;;;;;;;;;;6134395;23;19920;-91
2023/04/10 06:24:23;;;;;;;;;;;;;;;;;;6133403;23;19920;-90
2023/04/10 06:26:51;;;;;;;;;;;;;;;;;;6168707;23;19935;-90
2023/04/10 06:29:21;;;;;;;;;;;;;;;;;;6134082;23;19920;-90
2023/04/10 06:31:49;;;;;;;;;;;;;;;;;;6135534;23;20267;-90
2023/04/10 06:34:17;;;;;;;;;;;;;;;;;;6135589;23;20344;-90
2023/04/10 06:37:03;;;;;;;;;;;;;;;;;;6136181;23;19920;-89
2023/04/10 06:42:13;;;;;;;;;;;;;;;;;;6157205;23;20370;-90
2023/04/10 06:44:57;;;;;;;;;;;;;;;;;;6132750;23;19921;-91
2023/04/10 06:47:24;;;;;;;;;;;;;;;;;;6133266;23;19971;-91
2023/04/10 06:49:51;;;;;;;;;;;;;;;;;;6158520;23;19924;-89
2023/04/10 06:52:18;;;;;;;;;;;;;;;;;;6132346;23;19931;-89
2023/04/10 06:54:50;;;;;;;;;;;;;;;;;;6133499;23;19920;-90
2023/04/10 06:57:17;;;;;;;;;;;;;;;;;;6111320;23;20259;-89
2023/04/10 06:59:44;;;;;;;;;;;;;;;;;;6134558;23;19928;-90
2023/04/10 07:02:13;;;;;;;;;;;;;;;;;;6110381;23;19921;-89
2023/04/10 07:04:43;;;;;;;;;;;;;;;;;;6134474;23;19924;-90
2023/04/10 07:07:11;;;;;;;;;;;;;;;;;;6135134;23;19931;-91
2023/04/10 07:09:38;;;;;;;;;;;;;;;;;;6134635;23;19920;-91
2023/04/10 07:12:08;;;;;;;;;;;;;;;;;;6184316;23;19924;-90
2023/04/10 07:14:35;;;;;;;;;;;;;;;;;;6135964;23;19920;-91
2023/04/10 07:17:03;;;;;;;;;;;;;;;;;;6160892;23;19916;-91
2023/04/10 07:19:37;;;;;;;;;;;;;;;;;;6163605;23;19925;-90
2023/04/10 07:22:07;;;;;;;;;;;;;;;;;;6141216;23;19920;-91
2023/04/10 07:24:34;;;;;;;;;;;;;;;;;;6143744;23;19926;-90
2023/04/10 07:27:03;;;;;;;;;;;;;;;;;;6146220;23;19926;-89
2023/04/10 07:29:30;;;;;;;;;;;;;;;;;;6143715;23;19924;-89
2023/04/10 07:31:57;;;;;;;;;;;;;;;;;;6108334;23;19928;-89
2023/04/10 07:34:25;;;;;;;;;;;;;;;;;;6133087;23;19921;-91
2023/04/10 07:36:56;;;;;;;;;;;;;;;;;;6132979;23;20246;-90
2023/04/10 07:39:23;;;;;;;;;;;;;;;;;;6133385;23;19931;-90
2023/04/10 07:41:53;;;;;;;;;;;;;;;;;;6132546;23;19924;-89
2023/04/10 07:44:20;;;;;;;;;;;;;;;;;;6157665;23;20348;-90
2023/04/10 07:46:47;;;;;;;;;;;;;;;;;;6132641;23;19944;-90
2023/04/10 07:49:14;;;;;;;;;;;;;;;;;;6132901;23;19920;-89
2023/04/10 07:51:42;;;;;;;;;;;;;;;;;;6157552;23;20367;-90
2023/04/10 07:54:11;;;;;;;;;;;;;;;;;;6132720;23;19924;-90
2023/04/10 07:56:38;;;;;;;;;;;;;;;;;;6133955;23;20355;-90
2023/04/10 07:59:06;;;;;;;;;;;;;;;;;;6133158;23;20404;-90
2023/04/10 08:01:38;;;;;;;;;;;;;;;;;;6132669;23;19928;-90
2023/04/10 08:04:05;;;;;;;;;;;;;;;;;;6158170;23;20363;-90
2023/04/10 08:06:32;;;;;;;;;;;;;;;;;;6133392;23;19920;-91
2023/04/10 08:20:59;;;;;;;;;;;;;;;;;;6181930;23;20267;-89
2023/04/10 08:26:13;;;;;;;;;;;;;;;;;;6129212;23;19925;-89
2023/04/10 08:34:23;;;;;;;;;;;;;;;;;;6135133;23;19921;-91
2023/04/10 08:36:52;;;;;;;;;;;;;;;;;;6128223;23;19928;-91
2023/04/10 08:39:19;;;;;;;;;;;;;;;;;;6129218;23;19920;-90
2023/04/10 08:41:47;;;;;;;;;;;;;;;;;;6101400;23;19921;-92
2023/04/10 08:44:14;;;;;;;;;;;;;;;;;;6104080;23;19928;-92
2023/04/10 08:46:43;;;;;;;;;;;;;;;;;;6103109;23;19925;-92
2023/04/10 08:49:15;;;;;;;;;;;;;;;;;;6105104;23;20348;-93
2023/04/10 08:51:44;;;;;;;;;;;;;;;;;;6106134;23;19921;-93
2023/04/10 09:03:13;;;;;;;;;;;;;;;;;;6127394;23;20249;-92
2023/04/10 09:08:34;;;;;;;;;;;;;;;;;;6106417;23;19936;-92
2023/04/10 09:30:56;;;;;;;;;;;;;;;;;;6084495;23;19920;-92
2023/04/10 09:33:26;;;;;;;;;;;;;;;;;;6104723;23;20353;-91
2023/04/10 09:41:41;;;;;;;;;;;;;;;;;;6086404;23;20344;-92
2023/04/10 09:58:25;;;;;;;;;;;;;;;;;;6130342;23;19921;-92
2023/04/10 10:03:34;;;;;;;;;;;;;;;;;;6101305;23;20275;-90
2023/04/10 10:14:15;;;;;;;;;;;;;;;;;;6130637;23;19921;-91
2023/04/10 10:16:46;;;;;;;;;;;;;;;;;;6130470;23;20348;-90
2023/04/10 10:19:20;;;;;;;;;;;;;;;;;;6106137;23;19927;-91
2023/04/10 10:22:02;;;;;;;;;;;;;;;;;;6109048;23;19920;-92
2023/04/10 10:35:21;;;;;;;;;;;;;;;;;;6144522;23;19921;-91
2023/04/10 10:43:51;;;;;;;;;;;;;;;;;;6106624;23;19920;-92
2023/04/10 10:46:32;;;;;;;;;;;;;;;;;;6106830;23;19927;-90
2023/04/10 10:49:01;;;;;;;;;;;;;;;;;;6128365;23;19920;-91
2023/04/10 11:09:09;;;;;;;;;;;;;;;;;;6133732;23;19912;-91
2023/04/10 11:14:39;;;;;;;;;;;;;;;;;;6123610;23;19924;-92
2023/04/10 11:20:02;;;;;;;;;;;;;;;;;;6104453;23;19921;-93
2023/04/10 11:22:48;;;;;;;;;;;;;;;;;;6103655;23;19924;-91
2023/04/10 11:25:18;;;;;;;;;;;;;;;;;;6129022;23;19920;-92
2023/04/10 11:33:28;;;;;;;;;;;;;;;;;;6155871;23;19929;-91
2023/04/10 11:36:10;;;;;;;;;;;;;;;;;;6154455;23;20288;-91
2023/04/10 11:41:22;;;;;;;;;;;;;;;;;;6157026;23;19920;-91
2023/04/10 11:49:18;;;;;;;;;;;;;;;;;;6130218;23;19928;-92
2023/04/10 11:54:38;;;;;;;;;;;;;;;;;;6128530;23;19928;-91
2023/04/10 12:02:51;;;;;;;;;;;;;;;;;;6124431;23;19920;-91
2023/04/10 12:05:19;;;;;;;;;;;;;;;;;;6104091;23;19921;-91
2023/04/10 12:07:57;;;;;;;;;;;;;;;;;;6128808;23;19928;-92
2023/04/10 12:10:31;;;;;;;;;;;;;;;;;;6128515;23;19920;-93
2023/04/10 12:13:18;;;;;;;;;;;;;;;;;;6128400;23;19921;-92
2023/04/10 12:18:35;;;;;;;;;;;;;;;;;;6127151;23;19928;-91
2023/04/10 12:21:07;;;;;;;;;;;;;;;;;;6128369;23;19928;-91
2023/04/10 12:26:20;;;;;;;;;;;;;;;;;;6128429;23;19920;-92
2023/04/10 12:28:52;;;;;;;;;;;;;;;;;;6104090;23;19921;-90
2023/04/10 13:00:05;;;;;;;;;;;;;;;;;;6127660;23;19920;-91
2023/04/10 13:08:35;;;;;;;;;;;;;;;;;;6103551;23;19921;-91
2023/04/10 13:13:47;;;;;;;;;;;;;;;;;;6128650;23;19927;-91
2023/04/10 13:21:45;;;;;;;;;;;;;;;;;;6153710;23;19924;-92
2023/04/10 13:24:13;;;;;;;;;;;;;;;;;;6127974;23;19927;-85
2023/04/10 13:26:40;;;;;;;;;;;;;;;;;;6193911;23;19927;-85
2023/04/10 13:29:08;;;;;;;;;;;;;;;;;;6132727;23;19920;-85
2023/04/10 13:31:35;;;;;;;;;;;;;;;;;;6184853;23;19943;-84
2023/04/10 13:34:02;;;;;;;;;;;;;;;;;;6133428;23;19927;-85
2023/04/10 13:36:30;;;;;;;;;;;;;;;;;;6184120;23;19924;-85
2023/04/10 13:38:57;;;;;;;;;;;;;;;;;;6193772;23;19927;-84
2023/04/10 13:41:26;;;;;;;;;;;;;;;;;;6133502;23;19921;-84
2023/04/10 13:43:53;;;;;;;;;;;;;;;;;;6158443;23;19920;-85
2023/04/10 13:46:20;;;;;;;;;;;;;;;;;;6184050;23;19920;-84
2023/04/10 13:48:47;;;;;;;;;;;;;;;;;;6184499;23;19927;-85
2023/04/10 13:51:16;;;;;;;;;;;;;;;;;;6157524;23;19920;-85
2023/04/10 13:53:43;;;;;;;;;;;;;;;;;;6133253;23;20355;-85
2023/04/10 13:56:10;;;;;;;;;;;;;;;;;;6184415;23;19920;-85
2023/04/10 13:58:38;;;;;;;;;;;;;;;;;;6157558;23;20284;-84
2023/04/10 14:01:08;;;;;;;;;;;;;;;;;;6193332;23;20256;-85
2023/04/10 14:03:35;;;;;;;;;;;;;;;;;;6133503;23;19928;-85
2023/04/10 14:06:02;;;;;;;;;;;;;;;;;;6184281;23;19928;-85
2023/04/10 14:08:29;;;;;;;;;;;;;;;;;;6184698;23;20237;-85
2023/04/10 14:10:58;;;;;;;;;;;;;;;;;;6185464;23;19927;-85
2023/04/10 14:13:26;;;;;;;;;;;;;;;;;;6191797;23;19920;-85
2023/04/10 14:16:00;;;;;;;;;;;;;;;;;;6159722;23;19920;-85
2023/04/10 14:18:29;;;;;;;;;;;;;;;;;;6169165;23;19973;-84
2023/04/10 14:20:56;;;;;;;;;;;;;;;;;;6169429;23;20164;-85
2023/04/10 14:23:23;;;;;;;;;;;;;;;;;;6134574;23;19927;-85
2023/04/10 14:25:52;;;;;;;;;;;;;;;;;;6159316;23;19928;-85
2023/04/10 14:28:19;;;;;;;;;;;;;;;;;;6134517;23;19927;-85
2023/04/10 14:30:49;;;;;;;;;;;;;;;;;;6185540;23;19927;-85
2023/04/10 14:33:17;;;;;;;;;;;;;;;;;;6191342;23;20245;-85
2023/04/10 14:35:45;;;;;;;;;;;;;;;;;;6159238;23;19925;-85
2023/04/10 14:38:12;;;;;;;;;;;;;;;;;;6185767;23;20371;-85
2023/04/10 14:40:40;;;;;;;;;;;;;;;;;;6134623;23;19928;-85
2023/04/10 14:43:07;;;;;;;;;;;;;;;;;;6158415;23;20248;-85
2023/04/10 14:45:36;;;;;;;;;;;;;;;;;;6159215;23;19920;-85
2023/04/10 14:48:03;;;;;;;;;;;;;;;;;;6134612;23;19920;-84
2023/04/10 14:50:32;;;;;;;;;;;;;;;;;;6158451;23;19946;-85
2023/04/10 14:52:59;;;;;;;;;;;;;;;;;;6158697;23;19920;-85
2023/04/10 14:55:29;;;;;;;;;;;;;;;;;;6159117;23;19924;-85
2023/04/10 14:57:56;;;;;;;;;;;;;;;;;;6159110;23;19927;-84
2023/04/10 15:00:24;;;;;;;;;;;;;;;;;;6185362;23;19927;-85
2023/04/10 15:02:50;;;;;;;;;;;;;;;;;;6159309;23;19920;-85
2023/04/10 15:05:18;;;;;;;;;;;;;;;;;;6159080;23;19920;-85
2023/04/10 15:07:47;;;;;;;;;;;;;;;;;;6158755;23;19927;-85
2023/04/10 15:10:14;;;;;;;;;;;;;;;;;;6134252;23;20333;-84
2023/04/10 15:12:41;;;;;;;;;;;;;;;;;;6194153;23;19921;-85
2023/04/10 15:15:08;;;;;;;;;;;;;;;;;;6158494;23;20341;-85
2023/04/10 15:17:35;;;;;;;;;;;;;;;;;;6159338;23;19924;-85
2023/04/10 15:20:03;;;;;;;;;;;;;;;;;;6185849;23;19920;-85
2023/04/10 15:22:30;;;;;;;;;;;;;;;;;;6168059;23;19927;-84
2023/04/10 15:24:59;;;;;;;;;;;;;;;;;;6133790;23;19920;-85
2023/04/10 15:27:26;;;;;;;;;;;;;;;;;;6185060;23;19969;-84
2023/04/10 15:29:55;;;;;;;;;;;;;;;;;;6185295;23;20344;-84
2023/04/10 15:32:22;;;;;;;;;;;;;;;;;;6185232;23;19921;-84
2023/04/10 15:34:51;;;;;;;;;;;;;;;;;;6158390;23;19927;-84
2023/04/10 15:37:18;;;;;;;;;;;;;;;;;;6184388;23;19920;-85
2023/04/10 15:39:45;;;;;;;;;;;;;;;;;;6133058;23;19924;-84
2023/04/10 15:42:14;;;;;;;;;;;;;;;;;;6183746;23;19920;-85
2023/04/10 15:44:45;;;;;;;;;;;;;;;;;;6183609;23;19920;-84
2023/04/10 15:47:13;;;;;;;;;;;;;;;;;;6156778;23;20293;-85
2023/04/10 15:49:43;;;;;;;;;;;;;;;;;;6156814;23;20295;-85
2023/04/10 15:52:13;;;;;;;;;;;;;;;;;;6133853;23;20264;-85
2023/04/10 15:54:40;;;;;;;;;;;;;;;;;;6185013;23;19929;-85
2023/04/10 15:57:07;;;;;;;;;;;;;;;;;;6132703;23;19921;-85
2023/04/10 15:59:35;;;;;;;;;;;;;;;;;;6193239;23;20252;-84
2023/04/10 16:02:04;;;;;;;;;;;;;;;;;;6134204;23;19927;-85
2023/04/10 16:04:31;;;;;;;;;;;;;;;;;;6183913;23;19920;-84
2023/04/10 16:06:58;;;;;;;;;;;;;;;;;;6133549;23;19921;-85
2023/04/10 16:09:25;;;;;;;;;;;;;;;;;;6133398;23;19932;-85
2023/04/10 16:11:56;;;;;;;;;;;;;;;;;;6184057;23;19921;-85
2023/04/10 16:14:25;;;;;;;;;;;;;;;;;;6157554;23;19931;-84
2023/04/10 16:16:54;;;;;;;;;;;;;;;;;;6157724;23;19927;-85
2023/04/10 16:19:21;;;;;;;;;;;;;;;;;;6133583;23;19921;-84
2023/04/10 16:21:50;;;;;;;;;;;;;;;;;;6183953;23;19920;-84
2023/04/10 16:24:18;;;;;;;;;;;;;;;;;;6131811;23;19931;-84
2023/04/10 16:26:45;;;;;;;;;;;;;;;;;;6183926;23;19943;-84
2023/04/10 16:29:14;;;;;;;;;;;;;;;;;;6184319;23;20257;-84
2023/04/10 16:31:44;;;;;;;;;;;;;;;;;;6158327;23;19921;-84
2023/04/10 16:34:17;;;;;;;;;;;;;;;;;;6134157;23;19920;-84
2023/04/10 16:36:44;;;;;;;;;;;;;;;;;;6132598;23;19921;-84
2023/04/10 16:39:13;;;;;;;;;;;;;;;;;;6158795;23;19927;-84
2023/04/10 16:41:40;;;;;;;;;;;;;;;;;;6158872;23;20212;-84
2023/04/10 16:44:10;;;;;;;;;;;;;;;;;;6184705;23;19921;-83
2023/04/10 16:46:37;;;;;;;;;;;;;;;;;;6155833;23;19924;-84
2023/04/10 16:49:04;;;;;;;;;;;;;;;;;;6182717;23;19920;-84
2023/04/10 16:51:34;;;;;;;;;;;;;;;;;;6157280;23;19920;-84
2023/04/10 16:54:04;;;;;;;;;;;;;;;;;;6157970;23;19921;-84
2023/04/10 16:56:31;;;;;;;;;;;;;;;;;;6193235;23;19920;-84
2023/04/10 16:59:00;;;;;;;;;;;;;;;;;;6134387;23;19920;-84
2023/04/10 17:01:27;;;;;;;;;;;;;;;;;;6185472;23;19928;-84
2023/04/10 17:03:55;;;;;;;;;;;;;;;;;;6185435;23;19920;-84
2023/04/10 17:06:22;;;;;;;;;;;;;;;;;;6144612;23;19919;-84
2023/04/10 17:08:50;;;;;;;;;;;;;;;;;;6187314;23;19948;-84
2023/04/10 17:11:17;;;;;;;;;;;;;;;;;;6187297;23;19995;-84
2023/04/10 17:13:45;;;;;;;;;;;;;;;;;;6186372;23;19960;-84
2023/04/10 17:16:16;;;;;;;;;;;;;;;;;;6170128;23;19972;-84
2023/04/10 17:18:43;;;;;;;;;;;;;;;;;;6193584;23;19927;-84
2023/04/10 17:21:11;;;;;;;;;;;;;;;;;;6158000;23;19927;-84
2023/04/10 17:23:40;;;;;;;;;;;;;;;;;;6157629;23;19928;-84
2023/04/10 17:26:14;;;;;;;;;;;;;;;;;;6183826;23;19931;-84
2023/04/10 17:28:45;;;;;;;;;;;;;;;;;;6157860;23;19920;-84
2023/04/10 17:31:14;;;;;;;;;;;;;;;;;;6168292;23;19920;-84
2023/04/10 17:33:43;;;;;;;;;;;;;;;;;;6157737;23;20344;-84
2023/04/10 17:36:16;;;;;;;;;;;;;;;;;;6193927;23;19931;-84
2023/04/10 17:38:43;;;;;;;;;;;;;;;;;;6183349;23;19928;-84
2023/04/10 17:41:11;;;;;;;;;;;;;;;;;;6158410;23;19931;-84
2023/04/10 17:43:40;;;;;;;;;;;;;;;;;;6134030;23;19920;-84
2023/04/10 17:46:07;;;;;;;;;;;;;;;;;;6159240;23;19931;-83
2023/04/10 17:48:34;;;;;;;;;;;;;;;;;;6159586;23;19920;-83
2023/04/10 17:51:06;;;;;;;;;;;;;;;;;;6185828;23;19927;-83
2023/04/10 17:53:38;;;;;;;;;;;;;;;;;;6191046;23;19944;-83
2023/04/10 17:56:34;;;;;;;;;;;;;;;;;;6157871;23;19924;-83
2023/04/10 17:59:02;;;;;;;;;;;;;;;;;;6158839;23;19920;-83
2023/04/10 18:01:29;;;;;;;;;;;;;;;;;;6195264;23;20366;-83
2023/04/10 18:04:01;;;;;;;;;;;;;;;;;;6158295;23;19924;-83
2023/04/10 18:06:28;;;;;;;;;;;;;;;;;;6194396;23;19924;-83
2023/04/10 18:08:55;;;;;;;;;;;;;;;;;;6159065;23;19920;-83
2023/04/10 18:11:22;;;;;;;;;;;;;;;;;;6133877;23;19928;-83
2023/04/10 18:13:49;;;;;;;;;;;;;;;;;;6185083;23;19924;-83
2023/04/10 18:16:18;;;;;;;;;;;;;;;;;;6158369;23;19924;-83
2023/04/10 18:18:45;;;;;;;;;;;;;;;;;;6185057;23;19921;-83
2023/04/10 18:21:17;;;;;;;;;;;;;;;;;;6184840;23;20244;-84
2023/04/10 18:23:44;;;;;;;;;;;;;;;;;;6131716;23;19921;-83
2023/04/10 18:26:11;;;;;;;;;;;;;;;;;;6169567;23;19921;-84
2023/04/10 18:28:42;;;;;;;;;;;;;;;;;;6184023;23;19920;-84
2023/04/10 18:31:13;;;;;;;;;;;;;;;;;;6159602;23;20336;-84
2023/04/10 18:33:42;;;;;;;;;;;;;;;;;;6185728;23;20252;-83
2023/04/10 18:36:09;;;;;;;;;;;;;;;;;;6195158;23;19920;-83
2023/04/10 18:38:41;;;;;;;;;;;;;;;;;;6184536;23;19920;-83
2023/04/10 18:41:08;;;;;;;;;;;;;;;;;;6185316;23;19944;-83
2023/04/10 18:43:37;;;;;;;;;;;;;;;;;;6134291;23;19920;-83
2023/04/10 18:46:04;;;;;;;;;;;;;;;;;;6158975;23;19927;-83
2023/04/10 18:48:33;;;;;;;;;;;;;;;;;;6158508;23;19920;-83
2023/04/10 18:51:01;;;;;;;;;;;;;;;;;;6158806;23;19928;-83
2023/04/10 18:53:28;;;;;;;;;;;;;;;;;;6158895;23;19931;-83
2023/04/10 18:55:55;;;;;;;;;;;;;;;;;;6158674;23;19927;-83
2023/04/10 18:58:24;;;;;;;;;;;;;;;;;;6134022;23;19921;-83
2023/04/10 19:00:52;;;;;;;;;;;;;;;;;;6158212;23;19925;-83
2023/04/10 19:03:19;;;;;;;;;;;;;;;;;;6184999;23;19928;-83
2023/04/10 19:05:51;;;;;;;;;;;;;;;;;;6185102;23;19921;-83
2023/04/10 19:08:20;;;;;;;;;;;;;;;;;;6157888;23;19921;-83
2023/04/10 19:10:52;;;;;;;;;;;;;;;;;;6194821;23;19924;-84
2023/04/10 19:13:24;;;;;;;;;;;;;;;;;;6190400;23;19920;-83
2023/04/10 19:15:51;;;;;;;;;;;;;;;;;;6185174;23;20259;-83
2023/04/10 19:18:18;;;;;;;;;;;;;;;;;;6133740;23;19930;-84
2023/04/10 19:20:47;;;;;;;;;;;;;;;;;;6158020;23;20237;-83
2023/04/10 19:23:14;;;;;;;;;;;;;;;;;;6158307;23;19920;-89
2023/04/10 19:25:43;;;;;;;;;;;;;;;;;;6160016;23;19928;-89
2023/04/10 19:28:10;;;;;;;;;;;;;;;;;;6157423;23;19927;-89
2023/04/10 19:30:37;;;;;;;;;;;;;;;;;;6184446;23;19928;-90
2023/04/10 19:33:04;;;;;;;;;;;;;;;;;;6157695;23;19920;-89
2023/04/10 19:35:31;;;;;;;;;;;;;;;;;;6182718;23;20248;-89
2023/04/10 19:37:59;;;;;;;;;;;;;;;;;;6133695;23;19924;-89
2023/04/10 19:40:26;;;;;;;;;;;;;;;;;;6132720;23;19927;-89
2023/04/10 19:42:54;;;;;;;;;;;;;;;;;;6184565;23;19920;-89
2023/04/10 19:45:26;;;;;;;;;;;;;;;;;;6185890;23;20347;-89
2023/04/10 19:47:53;;;;;;;;;;;;;;;;;;6134403;23;19921;-89
2023/04/10 19:50:20;;;;;;;;;;;;;;;;;;6182861;23;19920;-89
2023/04/10 19:52:47;;;;;;;;;;;;;;;;;;6184755;23;19940;-89
2023/04/10 19:55:14;;;;;;;;;;;;;;;;;;6182998;23;19927;-89
2023/04/10 19:57:42;;;;;;;;;;;;;;;;;;6162645;23;20344;-89
2023/04/10 20:00:12;;;;;;;;;;;;;;;;;;6189883;23;20374;-89
2023/04/10 20:02:41;;;;;;;;;;;;;;;;;;6133124;23;19947;-89
2023/04/10 20:05:09;;;;;;;;;;;;;;;;;;6156355;23;20268;-90
2023/04/10 20:07:36;;;;;;;;;;;;;;;;;;6158172;23;19920;-89
2023/04/10 20:10:03;;;;;;;;;;;;;;;;;;6158273;23;19943;-89
2023/04/10 20:12:32;;;;;;;;;;;;;;;;;;6185117;23;19921;-89
2023/04/10 20:14:59;;;;;;;;;;;;;;;;;;6184028;23;19931;-89
2023/04/10 20:17:28;;;;;;;;;;;;;;;;;;6159401;23;19965;-89
2023/04/10 20:19:55;;;;;;;;;;;;;;;;;;6159066;23;19920;-89
2023/04/10 20:22:22;;;;;;;;;;;;;;;;;;6133205;23;19921;-88
2023/04/10 20:24:49;;;;;;;;;;;;;;;;;;6157951;23;20367;-89
2023/04/10 20:27:16;;;;;;;;;;;;;;;;;;6184988;23;19928;-89
2023/04/10 20:29:43;;;;;;;;;;;;;;;;;;6158237;23;20257;-89
2023/04/10 20:32:10;;;;;;;;;;;;;;;;;;6185543;23;19924;-89
2023/04/10 20:34:39;;;;;;;;;;;;;;;;;;6157358;23;19927;-89
2023/04/10 20:37:06;;;;;;;;;;;;;;;;;;6183913;23;20249;-89
2023/04/10 20:39:33;;;;;;;;;;;;;;;;;;6158001;23;20336;-90
2023/04/10 20:42:00;;;;;;;;;;;;;;;;;;6132327;23;19924;-89
2023/04/10 20:44:27;;;;;;;;;;;;;;;;;;6184486;23;19935;-89
2023/04/10 20:46:55;;;;;;;;;;;;;;;;;;6133122;23;20359;-89
2023/04/10 20:49:23;;;;;;;;;;;;;;;;;;6160828;23;19920;-88